Oriental Clematis — 9VJT5 — position and weather

sailwx.info

Track history (hours):
 
Tides and Currents Weather Stations Pressure Air Temp Water Temp Dewpoint Dewpoint Depression Visibility Wind Speed Wind Dir Waves Ship Positions

Oriental Clematis

Last reported at 2015-Apr-21 02:18 UTC. Time now 2015-Apr-21 19:01 UTC.
Position N 34°50' E 139°36'.

Length 134 m; draft 5.5 m.

Type: Ship. MMSI: 565157000.

Date/timePositionNaut miles runAvg speedWind from/ knotsBaromVisibWave heightAir tempDewpointWater temp
2015-Apr-21 02:18N 34°50' E 139°36'810.8
2015-Apr-21 01:33N 34°58' E 139°39'1111.4
2015-Apr-21 00:33N 35°08' E 139°44'1111.3
2015-Apr-20 23:33N 35°19' E 139°43'1110.6
2015-Apr-20 22:33N 35°28' E 139°50'1110.7
2015-Apr-20 21:33N 35°34' E 140°01'4 4.2
2015-Apr-20 20:32N 35°36' E 140°05'0 0.0
2015-Apr-20 19:32N 35°36' E 140°05'0 0.0
2015-Apr-20 18:26N 35°36' E 140°05'0 0.0
2015-Apr-20 17:26N 35°36' E 140°05'0 0.0
2015-Apr-20 16:14N 35°36' E 140°05'0 0.0
2015-Apr-20 15:32N 35°36' E 140°05'0 0.0
2015-Apr-20 14:32N 35°36' E 140°05'0 0.0
2015-Apr-20 13:26N 35°36' E 140°05'0 0.0
2015-Apr-20 12:32N 35°36' E 140°05'0 0.0
2015-Apr-20 11:32N 35°36' E 140°05'0 0.0
2015-Apr-20 10:26N 35°36' E 140°05'0 0.0
2015-Apr-20 09:32N 35°36' E 140°05'0 0.0
2015-Apr-20 08:20N 35°36' E 140°05'0 0.0
2015-Apr-20 07:32N 35°36' E 140°05'0 0.0
2015-Apr-20 06:26N 35°36' E 140°05'0 0.0
2015-Apr-20 05:32N 35°36' E 140°05'0 0.2
2015-Apr-20 04:26N 35°36' E 140°06'0 0.0
2015-Apr-20 03:17N 35°36' E 140°06'0 0.0
2015-Apr-20 02:32N 35°36' E 140°06'0 0.0
2015-Apr-20 01:32N 35°36' E 140°06'0 0.0
2015-Apr-20 00:29N 35°36' E 140°06'0 0.0
2015-Apr-19 23:32N 35°36' E 140°06'4 4.1
2015-Apr-19 22:32N 35°34' E 140°01'2 1.9
2015-Apr-19 21:28N 35°34' E 139°59'0 0.0
2015-Apr-19 20:10N 35°34' E 139°59'0 0.1
2015-Apr-19 19:28N 35°34' E 139°59'0 0.0
2015-Apr-19 18:28N 35°34' E 139°59'0 0.0
2015-Apr-19 17:25N 35°34' E 139°59'0 0.0
2015-Apr-19 16:31N 35°34' E 139°59'0 0.0
2015-Apr-19 15:22N 35°34' E 139°59'0 0.1
2015-Apr-19 13:16N 35°34' E 139°59'0 0.0
2015-Apr-19 12:16N 35°34' E 139°59'0 0.1
2015-Apr-19 11:33N 35°34' E 139°59'8 7.9
2015-Apr-19 10:33N 35°28' E 139°52'1211.7
2015-Apr-19 09:33N 35°18' E 139°44'1212.1
2015-Apr-19 08:33N 35°06' E 139°46'1313.0
2015-Apr-19 07:33N 34°54' E 139°41'23910.4
2015-Apr-18 08:32N 33°60' E 134°59'1111.6
2015-Apr-18 07:33N 34°11' E 134°58'1512.0
2015-Apr-18 06:19N 34°25' E 135°04'1012.7
2015-Apr-18 05:33N 34°30' E 135°14'6 5.4
2015-Apr-18 04:29N 34°26' E 135°19'0 0.0
2015-Apr-18 03:29N 34°26' E 135°19'0 0.0
2015-Apr-18 02:23N 34°26' E 135°19'0 0.0
2015-Apr-18 01:17N 34°26' E 135°19'0 0.0
2015-Apr-18 00:29N 34°26' E 135°19'0 0.0
2015-Apr-17 23:23N 34°26' E 135°19'0 0.0
2015-Apr-17 22:29N 34°26' E 135°19'0 0.0
2015-Apr-17 21:29N 34°26' E 135°19'0 0.0
2015-Apr-17 20:29N 34°26' E 135°19'0 0.0
2015-Apr-17 19:29N 34°26' E 135°19'0 0.0
2015-Apr-17 18:29N 34°26' E 135°19'0 0.0
2015-Apr-17 17:29N 34°26' E 135°19'0 0.0
2015-Apr-17 16:29N 34°26' E 135°19'0 0.0
2015-Apr-17 15:29N 34°26' E 135°19'0 0.0
2015-Apr-17 14:29N 34°26' E 135°19'0 0.0
2015-Apr-17 13:29N 34°26' E 135°19'0 0.0
2015-Apr-17 12:17N 34°26' E 135°19'0 0.0
2015-Apr-17 11:23N 34°26' E 135°19'0 0.0
2015-Apr-17 10:29N 34°26' E 135°19'0 0.0
2015-Apr-17 09:23N 34°26' E 135°19'0 0.0
2015-Apr-17 08:11N 34°26' E 135°19'0 0.0
2015-Apr-17 07:29N 34°26' E 135°19'0 0.0
2015-Apr-17 05:29N 34°26' E 135°19'0 0.0
2015-Apr-17 04:23N 34°26' E 135°19'0 0.0
2015-Apr-16 22:33N 34°26' E 135°19'2 2.3
2015-Apr-16 21:32N 34°28' E 135°18'0 0.1
2015-Apr-16 20:32N 34°28' E 135°18'0 0.0
2015-Apr-16 19:32N 34°28' E 135°18'0 0.0
2015-Apr-16 17:14N 34°28' E 135°18'0 0.0
2015-Apr-16 15:08N 34°28' E 135°18'2 0.4
2015-Apr-16 10:31N 34°29' E 135°16'10 9.9
2015-Apr-16 09:32N 34°23' E 135°06'1212.4
2015-Apr-16 08:33N 34°12' E 134°59'  
Track history (hours):
 
Tides and Currents Weather Stations Pressure Air Temp Water Temp Dewpoint Dewpoint Depression Visibility Wind Speed Wind Dir Waves Ship Positions

Oriental Clematis

Last reported at 2015-Apr-21 02:18 UTC. Time now 2015-Apr-21 19:01 UTC.
Position N 34°50' E 139°36'.

Length 134 m; draft 5.5 m.

Type: Ship. MMSI: 565157000.

Date/timePositionNaut miles runAvg speedWind from/ knotsBaromVisibWave heightAir tempDewpointWater temp
2015-Apr-21 02:18N 34°50' E 139°36'810.8
2015-Apr-21 01:33N 34°58' E 139°39'1111.4
2015-Apr-21 00:33N 35°08' E 139°44'1111.3
2015-Apr-20 23:33N 35°19' E 139°43'1110.6
2015-Apr-20 22:33N 35°28' E 139°50'1110.7
2015-Apr-20 21:33N 35°34' E 140°01'4 4.2
2015-Apr-20 20:32N 35°36' E 140°05'0 0.0
2015-Apr-20 19:32N 35°36' E 140°05'0 0.0
2015-Apr-20 18:26N 35°36' E 140°05'0 0.0
2015-Apr-20 17:26N 35°36' E 140°05'0 0.0
2015-Apr-20 16:14N 35°36' E 140°05'0 0.0
2015-Apr-20 15:32N 35°36' E 140°05'0 0.0
2015-Apr-20 14:32N 35°36' E 140°05'0 0.0
2015-Apr-20 13:26N 35°36' E 140°05'0 0.0
2015-Apr-20 12:32N 35°36' E 140°05'0 0.0
2015-Apr-20 11:32N 35°36' E 140°05'0 0.0
2015-Apr-20 10:26N 35°36' E 140°05'0 0.0
2015-Apr-20 09:32N 35°36' E 140°05'0 0.0
2015-Apr-20 08:20N 35°36' E 140°05'0 0.0
2015-Apr-20 07:32N 35°36' E 140°05'0 0.0
2015-Apr-20 06:26N 35°36' E 140°05'0 0.0
2015-Apr-20 05:32N 35°36' E 140°05'0 0.2
2015-Apr-20 04:26N 35°36' E 140°06'0 0.0
2015-Apr-20 03:17N 35°36' E 140°06'0 0.0
2015-Apr-20 02:32N 35°36' E 140°06'0 0.0
2015-Apr-20 01:32N 35°36' E 140°06'0 0.0
2015-Apr-20 00:29N 35°36' E 140°06'0 0.0
2015-Apr-19 23:32N 35°36' E 140°06'4 4.1
2015-Apr-19 22:32N 35°34' E 140°01'2 1.9
2015-Apr-19 21:28N 35°34' E 139°59'0 0.0
2015-Apr-19 20:10N 35°34' E 139°59'0 0.1
2015-Apr-19 19:28N 35°34' E 139°59'0 0.0
2015-Apr-19 18:28N 35°34' E 139°59'0 0.0
2015-Apr-19 17:25N 35°34' E 139°59'0 0.0
2015-Apr-19 16:31N 35°34' E 139°59'0 0.0
2015-Apr-19 15:22N 35°34' E 139°59'0 0.1
2015-Apr-19 13:16N 35°34' E 139°59'0 0.0
2015-Apr-19 12:16N 35°34' E 139°59'0 0.1
2015-Apr-19 11:33N 35°34' E 139°59'8 7.9
2015-Apr-19 10:33N 35°28' E 139°52'1211.7
2015-Apr-19 09:33N 35°18' E 139°44'1212.1
2015-Apr-19 08:33N 35°06' E 139°46'1313.0
2015-Apr-19 07:33N 34°54' E 139°41'23910.4
2015-Apr-18 08:32N 33°60' E 134°59'1111.6
2015-Apr-18 07:33N 34°11' E 134°58'1512.0
2015-Apr-18 06:19N 34°25' E 135°04'1012.7
2015-Apr-18 05:33N 34°30' E 135°14'6 5.4
2015-Apr-18 04:29N 34°26' E 135°19'0 0.0
2015-Apr-18 03:29N 34°26' E 135°19'0 0.0
2015-Apr-18 02:23N 34°26' E 135°19'0 0.0
2015-Apr-18 01:17N 34°26' E 135°19'0 0.0
2015-Apr-18 00:29N 34°26' E 135°19'0 0.0
2015-Apr-17 23:23N 34°26' E 135°19'0 0.0
2015-Apr-17 22:29N 34°26' E 135°19'0 0.0
2015-Apr-17 21:29N 34°26' E 135°19'0 0.0
2015-Apr-17 20:29N 34°26' E 135°19'0 0.0
2015-Apr-17 19:29N 34°26' E 135°19'0 0.0
2015-Apr-17 18:29N 34°26' E 135°19'0 0.0
2015-Apr-17 17:29N 34°26' E 135°19'0 0.0
2015-Apr-17 16:29N 34°26' E 135°19'0 0.0
2015-Apr-17 15:29N 34°26' E 135°19'0 0.0
2015-Apr-17 14:29N 34°26' E 135°19'0 0.0
2015-Apr-17 13:29N 34°26' E 135°19'0 0.0
2015-Apr-17 12:17N 34°26' E 135°19'0 0.0
2015-Apr-17 11:23N 34°26' E 135°19'0 0.0
2015-Apr-17 10:29N 34°26' E 135°19'0 0.0
2015-Apr-17 09:23N 34°26' E 135°19'0 0.0
2015-Apr-17 08:11N 34°26' E 135°19'0 0.0
2015-Apr-17 07:29N 34°26' E 135°19'0 0.0
2015-Apr-17 05:29N 34°26' E 135°19'0 0.0
2015-Apr-17 04:23N 34°26' E 135°19'0 0.0
2015-Apr-16 22:33N 34°26' E 135°19'2 2.3
2015-Apr-16 21:32N 34°28' E 135°18'0 0.1
2015-Apr-16 20:32N 34°28' E 135°18'0 0.0
2015-Apr-16 19:32N 34°28' E 135°18'0 0.0
2015-Apr-16 17:14N 34°28' E 135°18'0 0.0
2015-Apr-16 15:08N 34°28' E 135°18'2 0.4
2015-Apr-16 10:31N 34°29' E 135°16'10 9.9
2015-Apr-16 09:32N 34°23' E 135°06'1212.4
2015-Apr-16 08:33N 34°12' E 134°59'  

Dump ship's entire track history